Time;durP1;ratioP1;P1;durP2;ratioP2;P2;SDS_P1;SDS_P2;PMS_P1;PMS_P2;Temp;Humidity;BMP_temperature;BMP_pressure;BME280_temperature;BME280_humidity;BME280_pressure;Samples;Min_cycle;Max_cycle;Signal;HPM_P1;HPM_P2
2024/04/14 00:00:00;;;;;;;;;;;;;;;13.77;67.51;100313.52;130511;1263;107786;-81
2024/04/14 00:03:05;;;;;;;;;;;;;;;13.74;67.61;100309.90;130447;1259;108717;-81
2024/04/14 00:06:09;;;;;;;;;;;;;;;13.72;67.86;100311.48;130299;1260;107820;-81
2024/04/14 00:09:13;;;;;;;;;;;;;;;13.70;67.92;100302.70;130290;1264;108311;-81
2024/04/14 00:12:17;;;;;;;;;;;;;;;13.67;68.00;100301.86;130309;1261;106953;-81
2024/04/14 00:15:21;;;;;;;;;;;;;;;13.66;68.02;100300.40;130278;1264;108799;-80
2024/04/14 00:18:25;;;;;;;;;;;;;;;13.63;68.11;100299.14;130285;1264;107118;-81
2024/04/14 00:21:29;;;;;;;;;;;;;;;13.61;68.20;100295.27;130313;1261;107977;-82
2024/04/14 00:24:33;;;;;;;;;;;;;;;13.60;68.40;100285.01;130277;1265;108689;-81
2024/04/14 00:27:37;;;;;;;;;;;;;;;13.59;68.45;100286.25;130278;1261;108779;-81
2024/04/14 00:30:41;;;;;;;;;;;;;;;13.57;68.56;100284.14;130196;1260;107005;-81
2024/04/14 00:33:45;;;;;;;;;;;;;;;13.55;68.58;100275.89;130086;1261;106809;-80
2024/04/14 00:36:49;;;;;;;;;;;;;;;13.54;68.67;100268.92;130314;1260;107772;-81
2024/04/14 00:39:53;;;;;;;;;;;;;;;13.53;68.67;100272.61;130322;1261;109072;-80
2024/04/14 00:43:00;;;;;;;;;;;;;;;13.52;68.64;100270.02;130307;1264;108863;-81
2024/04/14 00:46:03;;;;;;;;;;;;;;;13.51;68.74;100261.20;130370;1264;106540;-81
2024/04/14 00:49:08;;;;;;;;;;;;;;;13.49;68.90;100258.00;130280;1264;107555;-81
2024/04/14 00:52:12;;;;;;;;;;;;;;;13.48;69.01;100260.22;130300;1264;107752;-81
2024/04/14 00:55:17;;;;;;;;;;;;;;;13.47;69.09;100254.12;130312;1260;107290;-81
2024/04/14 00:58:20;;;;;;;;;;;;;;;13.45;69.18;100247.56;130306;1260;107607;-81
2024/04/14 01:01:24;;;;;;;;;;;;;;;13.41;69.36;100244.42;130340;1260;107500;-81
2024/04/14 01:04:29;;;;;;;;;;;;;;;13.42;69.46;100239.36;130448;1259;107925;-81
2024/04/14 01:07:32;;;;;;;;;;;;;;;13.44;69.49;100229.56;130479;1274;107449;-80
2024/04/14 01:10:36;;;;;;;;;;;;;;;13.51;69.33;100222.33;130515;1259;106658;-81
2024/04/14 01:13:41;;;;;;;;;;;;;;;13.60;69.53;100221.56;130479;1258;107043;-81
2024/04/14 01:16:44;;;;;;;;;;;;;;;13.69;69.28;100223.77;130481;1263;108558;-81
2024/04/14 01:19:49;;;;;;;;;;;;;;;13.77;69.28;100223.87;130501;1264;107745;-82
2024/04/14 01:22:53;;;;;;;;;;;;;;;13.84;69.21;100224.18;130487;1259;108506;-81
2024/04/14 01:25:57;;;;;;;;;;;;;;;13.89;69.32;100214.34;130536;1262;106939;-82
2024/04/14 01:29:01;;;;;;;;;;;;;;;13.93;69.23;100215.86;130516;1264;106504;-80
2024/04/14 01:32:05;;;;;;;;;;;;;;;13.94;69.30;100203.08;130644;1262;107694;-81
2024/04/14 01:35:08;;;;;;;;;;;;;;;13.93;69.25;100203.72;130484;1259;106731;-81
2024/04/14 01:38:12;;;;;;;;;;;;;;;13.91;69.17;100201.24;130590;1259;107812;-81
2024/04/14 01:41:16;;;;;;;;;;;;;;;13.89;69.18;100207.60;130528;1260;107424;-81
2024/04/14 01:44:20;;;;;;;;;;;;;;;13.84;69.34;100210.27;130495;1264;110051;-81
2024/04/14 01:47:23;;;;;;;;;;;;;;;13.80;69.33;100203.80;130575;1263;105956;-81
2024/04/14 01:50:27;;;;;;;;;;;;;;;13.76;69.42;100194.67;130589;1262;107578;-81
2024/04/14 01:53:31;;;;;;;;;;;;;;;13.74;69.55;100189.95;130607;1259;106114;-81
2024/04/14 01:56:35;;;;;;;;;;;;;;;13.69;69.57;100184.36;130519;1264;107708;-81
2024/04/14 01:59:38;;;;;;;;;;;;;;;13.65;69.72;100177.24;130522;1262;107494;-81
2024/04/14 02:02:42;;;;;;;;;;;;;;;13.62;69.80;100168.64;130531;1259;107749;-81
2024/04/14 02:05:46;;;;;;;;;;;;;;;13.58;69.61;100155.79;130503;1259;108161;-81
2024/04/14 02:08:52;;;;;;;;;;;;;;;13.54;69.79;100155.52;130586;1262;108857;-81
2024/04/14 02:11:55;;;;;;;;;;;;;;;13.51;70.05;100155.96;130503;1264;106826;-80
2024/04/14 02:15:00;;;;;;;;;;;;;;;13.47;69.99;100156.05;130524;1263;107766;-81
2024/04/14 02:18:03;;;;;;;;;;;;;;;13.43;70.10;100146.62;130652;1258;107895;-81
2024/04/14 02:21:08;;;;;;;;;;;;;;;13.40;70.25;100141.08;130609;1259;107160;-82
2024/04/14 02:24:11;;;;;;;;;;;;;;;13.38;70.13;100139.50;130710;1262;106678;-81
2024/04/14 02:27:15;;;;;;;;;;;;;;;13.37;70.24;100138.74;130555;1259;106365;-81
2024/04/14 02:30:19;;;;;;;;;;;;;;;13.35;70.35;100133.34;130466;1262;107625;-82
2024/04/14 02:33:23;;;;;;;;;;;;;;;13.34;70.45;100130.84;130478;1265;108366;-80
2024/04/14 02:36:28;;;;;;;;;;;;;;;13.32;70.64;100124.48;130435;1259;107813;-81
2024/04/14 02:39:32;;;;;;;;;;;;;;;13.30;70.59;100121.72;130455;1264;108648;-82
2024/04/14 02:42:36;;;;;;;;;;;;;;;13.28;70.59;100118.27;130423;1259;108671;-81
2024/04/14 02:45:40;;;;;;;;;;;;;;;13.25;70.62;100111.42;130371;1264;107657;-81
2024/04/14 02:48:48;;;;;;;;;;;;;;;13.22;70.72;100107.02;130400;1260;118091;-82
2024/04/14 02:51:52;;;;;;;;;;;;;;;13.17;70.82;100104.52;130494;1263;108700;-81
2024/04/14 02:54:55;;;;;;;;;;;;;;;13.13;70.96;100098.84;130510;1265;108583;-81
2024/04/14 02:58:01;;;;;;;;;;;;;;;13.10;70.98;100098.13;130437;1259;106809;-82
2024/04/14 03:01:05;;;;;;;;;;;;;;;13.08;71.16;100090.60;130582;1264;108139;-80
2024/04/14 03:04:09;;;;;;;;;;;;;;;13.03;71.21;100087.06;130491;1264;108651;-81
2024/04/14 03:07:13;;;;;;;;;;;;;;;12.99;71.30;100080.02;130467;1263;108836;-80
2024/04/14 03:10:16;;;;;;;;;;;;;;;12.95;71.50;100074.50;130471;1259;107194;-82
2024/04/14 03:13:20;;;;;;;;;;;;;;;12.96;71.61;100068.65;130433;1263;108003;-81
2024/04/14 03:16:24;;;;;;;;;;;;;;;13.02;71.59;100067.45;130470;1259;107600;-81
2024/04/14 03:19:28;;;;;;;;;;;;;;;13.09;71.57;100061.62;130419;1264;106451;-81
2024/04/14 03:22:32;;;;;;;;;;;;;;;13.17;71.63;100058.98;130508;1265;108677;-81
2024/04/14 03:25:35;;;;;;;;;;;;;;;13.24;71.67;100049.73;130486;1264;107498;-82
2024/04/14 03:28:39;;;;;;;;;;;;;;;13.29;71.61;100051.70;130490;1259;108683;-80
2024/04/14 03:31:44;;;;;;;;;;;;;;;13.34;71.61;100048.66;130483;1261;107239;-80
2024/04/14 03:34:51;;;;;;;;;;;;;;;13.39;71.43;100044.96;130570;1264;107573;-79
2024/04/14 03:37:55;;;;;;;;;;;;;;;13.39;71.65;100041.39;130286;1260;107830;-80
2024/04/14 03:40:59;;;;;;;;;;;;;;;13.35;71.64;100032.98;130323;1263;109232;-80
2024/04/14 03:44:05;;;;;;;;;;;;;;;13.34;71.79;100029.52;130454;1265;107692;-80
2024/04/14 03:47:09;;;;;;;;;;;;;;;13.32;71.82;100030.66;130504;1260;109499;-80
2024/04/14 03:50:13;;;;;;;;;;;;;;;13.29;71.76;100024.05;130344;1263;108850;-80
2024/04/14 03:53:17;;;;;;;;;;;;;;;13.26;71.87;100017.80;130578;1263;108279;-80
2024/04/14 03:56:21;;;;;;;;;;;;;;;13.22;71.92;100012.48;130303;1259;106632;-80
2024/04/14 03:59:25;;;;;;;;;;;;;;;13.18;71.96;99999.52;130277;1264;106384;-81
2024/04/14 04:02:29;;;;;;;;;;;;;;;13.14;72.18;99999.82;130581;1264;107501;-80
2024/04/14 04:05:33;;;;;;;;;;;;;;;13.11;72.28;99990.77;130549;1265;108351;-80
2024/04/14 04:08:37;;;;;;;;;;;;;;;13.09;72.38;99981.91;130509;1265;107612;-80
2024/04/14 04:11:41;;;;;;;;;;;;;;;13.07;72.43;99977.42;130518;1259;107603;-79
2024/04/14 04:14:44;;;;;;;;;;;;;;;13.06;72.64;99973.69;130559;1259;107002;-82
2024/04/14 04:17:48;;;;;;;;;;;;;;;13.05;72.65;99976.90;130567;1264;106862;-81
2024/04/14 04:20:54;;;;;;;;;;;;;;;13.07;72.84;99972.48;130581;1264;107563;-81
2024/04/14 04:23:57;;;;;;;;;;;;;;;13.09;72.84;99966.70;130484;1259;108852;-80
2024/04/14 04:27:01;;;;;;;;;;;;;;;13.11;72.89;99958.34;130472;1260;107614;-81
2024/04/14 04:30:06;;;;;;;;;;;;;;;13.13;73.17;99952.64;130517;1263;108356;-80
2024/04/14 04:33:10;;;;;;;;;;;;;;;13.18;73.00;99960.11;130457;1262;107572;-80
2024/04/14 04:36:14;;;;;;;;;;;;;;;13.23;73.22;99956.27;130464;1262;106795;-80
2024/04/14 04:39:18;;;;;;;;;;;;;;;13.26;73.23;99949.11;130541;1259;108694;-80
2024/04/14 04:42:22;;;;;;;;;;;;;;;13.32;73.36;99940.59;130314;1259;108910;-79
2024/04/14 04:45:25;;;;;;;;;;;;;;;13.42;73.25;99940.77;130406;1264;108351;-79
2024/04/14 04:48:29;;;;;;;;;;;;;;;13.54;73.34;99938.65;130439;1262;108535;-80
2024/04/14 04:51:33;;;;;;;;;;;;;;;13.71;73.50;99935.96;130499;1259;107817;-80
2024/04/14 04:54:37;;;;;;;;;;;;;;;13.88;73.32;99934.56;130507;1262;107612;-81
2024/04/14 04:57:41;;;;;;;;;;;;;;;14.04;73.12;99933.23;130475;1257;107695;-81
2024/04/14 05:00:52;;;;;;;;;;;;;;;14.21;72.92;99931.44;130510;1262;107552;-80
2024/04/14 05:03:56;;;;;;;;;;;;;;;14.37;72.92;99930.05;130458;1264;108648;-81
2024/04/14 05:07:01;;;;;;;;;;;;;;;14.48;72.80;99926.98;130510;1262;108400;-81
2024/04/14 05:10:07;;;;;;;;;;;;;;;14.59;72.78;99918.63;130458;1264;108392;-81
2024/04/14 05:13:11;;;;;;;;;;;;;;;14.68;72.81;99917.48;130295;1262;107746;-86
2024/04/14 05:16:15;;;;;;;;;;;;;;;14.75;72.59;99915.41;130749;1262;108744;-85
2024/04/14 05:19:19;;;;;;;;;;;;;;;14.81;72.37;99913.62;130588;1262;107098;-85
2024/04/14 05:22:23;;;;;;;;;;;;;;;14.85;72.42;99912.42;130572;1262;106425;-86
2024/04/14 05:25:27;;;;;;;;;;;;;;;14.90;72.51;99907.23;130631;1257;107148;-86
2024/04/14 05:28:31;;;;;;;;;;;;;;;14.98;72.36;99915.75;130585;1262;106734;-86
2024/04/14 05:31:36;;;;;;;;;;;;;;;15.07;72.25;99914.36;130520;1258;108518;-85
2024/04/14 05:34:40;;;;;;;;;;;;;;;15.15;72.30;99909.69;130520;1262;106799;-85
2024/04/14 05:37:43;;;;;;;;;;;;;;;15.25;72.32;99912.83;130619;1262;106964;-87
2024/04/14 05:40:47;;;;;;;;;;;;;;;15.35;72.21;99908.30;130929;1262;107880;-86
2024/04/14 05:43:51;;;;;;;;;;;;;;;15.46;72.21;99906.04;130892;1259;108513;-85
2024/04/14 05:46:55;;;;;;;;;;;;;;;15.54;72.10;99890.81;130784;1259;108844;-86
2024/04/14 05:49:58;;;;;;;;;;;;;;;15.63;72.08;99884.67;130911;1263;107285;-83
2024/04/14 05:53:02;;;;;;;;;;;;;;;15.73;71.92;99880.66;130697;1260;107743;-85
2024/04/14 05:56:07;;;;;;;;;;;;;;;15.81;72.00;99883.87;130360;1259;106912;-85
2024/04/14 05:59:11;;;;;;;;;;;;;;;15.94;71.90;99885.49;130346;1260;109045;-83
2024/04/14 06:02:15;;;;;;;;;;;;;;;16.04;71.85;99877.48;130119;1265;106571;-83
2024/04/14 06:05:21;;;;;;;;;;;;;;;16.13;71.91;99870.87;130294;1264;108700;-83
2024/04/14 06:08:24;;;;;;;;;;;;;;;16.23;71.70;99869.50;130251;1265;108656;-83
2024/04/14 06:11:28;;;;;;;;;;;;;;;16.33;71.50;99867.29;130346;1260;105971;-83
2024/04/14 06:14:32;;;;;;;;;;;;;;;16.43;71.41;99861.39;130481;1260;106366;-83
2024/04/14 06:17:36;;;;;;;;;;;;;;;16.54;71.43;99859.66;130559;1262;109045;-84
2024/04/14 06:20:40;;;;;;;;;;;;;;;16.64;71.31;99858.81;130415;1262;106738;-84
2024/04/14 06:23:44;;;;;;;;;;;;;;;16.74;71.06;99862.86;130407;1260;106912;-84
2024/04/14 06:26:47;;;;;;;;;;;;;;;16.84;71.08;99861.55;130405;1263;107807;-83
2024/04/14 06:29:51;;;;;;;;;;;;;;;16.99;70.87;99857.87;130337;1270;108190;-83
2024/04/14 06:32:55;;;;;;;;;;;;;;;17.14;70.98;99858.50;130414;1257;105688;-83
2024/04/14 06:35:59;;;;;;;;;;;;;;;17.28;70.78;99853.00;130405;1271;107816;-81
2024/04/14 06:39:03;;;;;;;;;;;;;;;17.40;70.65;99851.98;130437;1261;108664;-84
2024/04/14 06:42:07;;;;;;;;;;;;;;;17.50;70.47;99842.67;130368;1262;108413;-83
2024/04/14 06:45:12;;;;;;;;;;;;;;;17.61;70.44;99836.14;130294;1264;106562;-81
2024/04/14 06:48:16;;;;;;;;;;;;;;;17.72;70.10;99827.79;130461;1271;106627;-84
2024/04/14 06:51:20;;;;;;;;;;;;;;;17.83;70.01;99825.45;130526;1261;108631;-81
2024/04/14 06:54:24;;;;;;;;;;;;;;;17.94;69.63;99819.13;130481;1262;106801;-78
2024/04/14 06:57:27;;;;;;;;;;;;;;;18.04;69.45;99822.91;130330;1263;108926;-80
2024/04/14 07:00:33;;;;;;;;;;;;;;;18.13;69.13;99812.88;130281;1272;109079;-79
2024/04/14 07:03:37;;;;;;;;;;;;;;;18.20;68.67;99822.28;130290;1263;106473;-80
2024/04/14 07:06:41;;;;;;;;;;;;;;;18.24;68.58;99820.27;130232;1259;108002;-81
2024/04/14 07:09:44;;;;;;;;;;;;;;;18.33;68.29;99818.19;130227;1261;107049;-79
2024/04/14 07:12:48;;;;;;;;;;;;;;;18.39;68.00;99818.01;130163;1259;106509;-80
2024/04/14 07:15:52;;;;;;;;;;;;;;;18.46;68.18;99810.73;130037;1263;107709;-79
2024/04/14 07:18:56;;;;;;;;;;;;;;;18.59;67.96;99815.12;129973;1265;108801;-78
2024/04/14 07:21:59;;;;;;;;;;;;;;;18.69;67.69;99807.66;130171;1259;108442;-72
2024/04/14 07:25:03;;;;;;;;;;;;;;;18.74;67.07;99801.10;130143;1263;106631;-74
2024/04/14 07:28:07;;;;;;;;;;;;;;;18.75;67.07;99799.98;130222;1263;106873;-76
2024/04/14 07:31:11;;;;;;;;;;;;;;;18.81;67.47;99806.16;130193;1264;108754;-76
2024/04/14 07:34:15;;;;;;;;;;;;;;;18.89;67.38;99805.31;130184;1259;107045;-75
2024/04/14 07:37:19;;;;;;;;;;;;;;;18.95;67.39;99806.88;130201;1265;108409;-75
2024/04/14 07:40:22;;;;;;;;;;;;;;;19.01;67.11;99808.48;130198;1263;107520;-75
2024/04/14 07:43:26;;;;;;;;;;;;;;;19.04;66.83;99807.34;130170;1265;108734;-75
2024/04/14 07:46:31;;;;;;;;;;;;;;;19.07;66.81;99807.02;130191;1264;107359;-76
2024/04/14 07:49:36;;;;;;;;;;;;;;;19.13;66.34;99807.67;130212;1265;106501;-76
2024/04/14 07:52:39;;;;;;;;;;;;;;;19.22;66.01;99800.79;130193;1260;106388;-76
2024/04/14 07:55:43;;;;;;;;;;;;;;;19.31;65.83;99803.34;130180;1265;108515;-76
2024/04/14 07:58:57;;;;;;;;;;;;;;;19.43;66.02;99805.73;130219;1263;107991;-78
2024/04/14 08:02:05;;;;;;;;;;;;;;;19.56;65.53;99799.76;130046;1265;107540;-74
2024/04/14 08:05:09;;;;;;;;;;;;;;;19.59;64.92;99801.77;130146;1262;106580;-75
2024/04/14 08:08:12;;;;;;;;;;;;;;;19.59;65.15;99801.27;130146;1263;107598;-77
2024/04/14 08:11:16;;;;;;;;;;;;;;;19.59;64.77;99802.25;130209;1265;108579;-75
2024/04/14 08:14:22;;;;;;;;;;;;;;;19.59;65.10;99801.11;130369;1259;107722;-76
2024/04/14 08:17:27;;;;;;;;;;;;;;;19.69;64.64;99799.44;130292;1262;107833;-75
2024/04/14 08:20:31;;;;;;;;;;;;;;;19.81;64.55;99796.72;130351;1259;108770;-75
2024/04/14 08:23:35;;;;;;;;;;;;;;;19.92;64.23;99803.62;130344;1262;108497;-75
2024/04/14 08:26:39;;;;;;;;;;;;;;;19.95;63.70;99806.48;130351;1262;107795;-76
2024/04/14 08:29:49;;;;;;;;;;;;;;;20.02;64.01;99800.39;130385;1262;107980;-76
2024/04/14 08:32:55;;;;;;;;;;;;;;;20.16;63.93;99801.60;130256;1262;108821;-75
2024/04/14 08:35:58;;;;;;;;;;;;;;;20.17;62.97;99799.09;130232;1263;107675;-75
2024/04/14 08:39:02;;;;;;;;;;;;;;;20.13;63.06;99798.54;130288;1262;108716;-75
2024/04/14 08:42:09;;;;;;;;;;;;;;;20.14;63.74;99793.11;130184;1265;107171;-75
2024/04/14 08:45:15;;;;;;;;;;;;;;;20.18;63.49;99797.34;130158;1263;108673;-75
2024/04/14 08:48:19;;;;;;;;;;;;;;;20.18;63.33;99798.96;130211;1264;107997;-74
2024/04/14 08:51:25;;;;;;;;;;;;;;;20.21;62.87;99802.73;130230;1262;107745;-74
2024/04/14 08:54:29;;;;;;;;;;;;;;;20.23;62.85;99795.89;130330;1262;107642;-75
2024/04/14 08:57:33;;;;;;;;;;;;;;;20.37;63.23;99797.45;130214;1271;107699;-75
2024/04/14 09:00:38;;;;;;;;;;;;;;;20.52;63.14;99794.63;130385;1262;107831;-74
2024/04/14 09:03:41;;;;;;;;;;;;;;;20.62;62.70;99793.85;130319;1273;108893;-75
2024/04/14 09:06:47;;;;;;;;;;;;;;;20.68;62.84;99789.69;130279;1260;107463;-74
2024/04/14 09:09:51;;;;;;;;;;;;;;;20.74;61.64;99798.09;130383;1262;107694;-75
2024/04/14 09:12:55;;;;;;;;;;;;;;;20.74;61.68;99787.13;130181;1265;107862;-74
2024/04/14 09:15:59;;;;;;;;;;;;;;;20.70;61.79;99785.30;130190;1265;108074;-75
2024/04/14 09:19:03;;;;;;;;;;;;;;;20.68;61.87;99782.14;130148;1263;107756;-75
2024/04/14 09:22:07;;;;;;;;;;;;;;;20.70;62.20;99781.06;130195;1265;107751;-74
2024/04/14 09:25:12;;;;;;;;;;;;;;;20.72;61.51;99787.34;130143;1265;108046;-74
2024/04/14 09:28:17;;;;;;;;;;;;;;;20.78;61.31;99790.75;130213;1273;108421;-74
2024/04/14 09:31:23;;;;;;;;;;;;;;;20.84;61.20;99790.79;130274;1265;107677;-75
2024/04/14 09:34:27;;;;;;;;;;;;;;;20.82;59.61;99805.66;130271;1262;106187;-74
2024/04/14 09:37:32;;;;;;;;;;;;;;;20.77;59.71;99811.95;130314;1260;106302;-74
2024/04/14 09:40:36;;;;;;;;;;;;;;;20.68;60.17;99814.95;130194;1265;107767;-74
2024/04/14 09:43:40;;;;;;;;;;;;;;;20.63;60.10;99817.48;130170;1263;106705;-74
2024/04/14 09:46:44;;;;;;;;;;;;;;;20.56;59.87;99828.91;130175;1263;107435;-73
2024/04/14 09:49:51;;;;;;;;;;;;;;;20.41;60.07;99825.33;130266;1263;108687;-74
2024/04/14 09:52:56;;;;;;;;;;;;;;;20.41;60.65;99826.05;130181;1263;107734;-74
2024/04/14 09:56:00;;;;;;;;;;;;;;;20.46;60.00;99823.05;130193;1264;107612;-73
2024/04/14 09:59:04;;;;;;;;;;;;;;;20.57;60.45;99815.48;130214;1264;108169;-74
2024/04/14 10:02:11;;;;;;;;;;;;;;;20.61;60.20;99810.42;130263;1262;108681;-74
2024/04/14 10:05:16;;;;;;;;;;;;;;;20.59;59.69;99813.70;130356;1263;106677;-74
2024/04/14 10:08:20;;;;;;;;;;;;;;;20.44;59.17;99823.96;130341;1262;108494;-74
2024/04/14 10:11:25;;;;;;;;;;;;;;;20.26;59.55;99825.30;130225;1262;106658;-74
2024/04/14 10:14:28;;;;;;;;;;;;;;;20.19;59.29;99827.48;130118;1259;106892;-74
2024/04/14 10:17:33;;;;;;;;;;;;;;;20.23;59.69;99829.14;130167;1259;107574;-74
2024/04/14 10:20:42;;;;;;;;;;;;;;;20.31;59.27;99832.66;130190;1265;106726;-76
2024/04/14 10:23:47;;;;;;;;;;;;;;;20.40;59.44;99836.83;130179;1259;108536;-76
2024/04/14 10:26:51;;;;;;;;;;;;;;;20.49;58.90;99837.16;130187;1266;108642;-75
2024/04/14 10:29:59;;;;;;;;;;;;;;;20.44;58.53;99846.90;130190;1264;108652;-75
2024/04/14 10:33:03;;;;;;;;;;;;;;;20.36;58.38;99851.66;130049;1264;108761;-76
2024/04/14 10:36:07;;;;;;;;;;;;;;;20.37;58.59;99853.98;129977;1273;108468;-76
2024/04/14 10:39:15;;;;;;;;;;;;;;;20.40;56.19;99850.48;130178;1266;108402;-75
2024/04/14 10:42:19;;;;;;;;;;;;;;;20.47;56.75;99843.77;130150;1263;107542;-75
2024/04/14 10:45:26;;;;;;;;;;;;;;;20.64;56.21;99840.64;130154;1273;106817;-75
2024/04/14 10:48:31;;;;;;;;;;;;;;;20.74;51.56;99838.39;130183;1260;108766;-75
2024/04/14 10:51:36;;;;;;;;;;;;;;;20.94;50.24;99828.59;130303;1263;107615;-75
2024/04/14 10:54:42;;;;;;;;;;;;;;;21.02;50.28;99821.20;130224;1265;107977;-75
2024/04/14 10:57:46;;;;;;;;;;;;;;;21.25;51.13;99821.50;130246;1273;108382;-75
2024/04/14 11:00:50;;;;;;;;;;;;;;;21.44;50.44;99827.98;130252;1264;108972;-76
2024/04/14 11:03:54;;;;;;;;;;;;;;;21.45;50.09;99832.59;130297;1263;107826;-76
2024/04/14 11:06:59;;;;;;;;;;;;;;;21.29;48.54;99836.30;130314;1259;108096;-76
2024/04/14 11:10:03;;;;;;;;;;;;;;;21.04;47.55;99846.04;130224;1260;106804;-76
2024/04/14 11:13:08;;;;;;;;;;;;;;;20.75;48.27;99838.88;130309;1262;108949;-77
2024/04/14 11:16:12;;;;;;;;;;;;;;;20.62;47.63;99838.80;130364;1263;107679;-76
2024/04/14 11:19:16;;;;;;;;;;;;;;;20.55;50.20;99834.08;130342;1263;106021;-75
2024/04/14 11:22:21;;;;;;;;;;;;;;;20.57;49.80;99851.98;130252;1262;108720;-76
2024/04/14 11:25:24;;;;;;;;;;;;;;;20.44;48.56;99860.27;130232;1262;106456;-74
2024/04/14 11:28:29;;;;;;;;;;;;;;;20.28;49.42;99865.02;130145;1272;106616;-74
2024/04/14 11:31:35;;;;;;;;;;;;;;;20.13;49.24;99869.20;130364;1263;108155;-75
2024/04/14 11:34:41;;;;;;;;;;;;;;;19.98;49.47;99874.81;130290;1263;107998;-73
2024/04/14 11:37:48;;;;;;;;;;;;;;;19.80;49.33;99876.11;130147;1273;106502;-75
2024/04/14 11:40:52;;;;;;;;;;;;;;;19.67;49.19;99871.70;130364;1262;108477;-75
2024/04/14 11:43:56;;;;;;;;;;;;;;;19.59;49.40;99874.85;130184;1263;107856;-76
2024/04/14 11:47:00;;;;;;;;;;;;;;;19.58;49.55;99869.06;130170;1265;107730;-74
2024/04/14 11:50:09;;;;;;;;;;;;;;;19.66;49.31;99872.16;130034;1265;108652;-76
2024/04/14 11:53:13;;;;;;;;;;;;;;;19.67;49.29;99883.77;130072;1263;108524;-74
2024/04/14 11:56:19;;;;;;;;;;;;;;;19.54;49.09;99889.27;130117;1261;108787;-76
2024/04/14 11:59:23;;;;;;;;;;;;;;;19.47;49.67;99889.48;130213;1273;108156;-74
2024/04/14 12:02:27;;;;;;;;;;;;;;;19.41;49.75;99894.09;130192;1262;109160;-74
2024/04/14 12:05:30;;;;;;;;;;;;;;;19.31;50.41;99896.92;130246;1262;107848;-74
2024/04/14 12:08:34;;;;;;;;;;;;;;;19.33;50.89;99895.98;130242;1260;107580;-75
2024/04/14 12:11:38;;;;;;;;;;;;;;;19.36;50.96;99900.91;130175;1263;108672;-75
2024/04/14 12:14:42;;;;;;;;;;;;;;;19.35;51.38;99898.93;130178;1265;108516;-75
2024/04/14 12:17:45;;;;;;;;;;;;;;;19.30;51.71;99902.05;130145;1273;106834;-75
2024/04/14 12:20:50;;;;;;;;;;;;;;;19.16;52.03;99904.89;130185;1266;108335;-75
2024/04/14 12:23:54;;;;;;;;;;;;;;;19.09;52.18;99895.88;130132;1263;106729;-75
2024/04/14 12:26:58;;;;;;;;;;;;;;;19.09;52.11;99909.52;130185;1263;106838;-74
2024/04/14 12:30:01;;;;;;;;;;;;;;;19.00;52.31;99907.15;130201;1263;108458;-75
2024/04/14 12:33:06;;;;;;;;;;;;;;;19.02;52.42;99909.11;130188;1264;106896;-75
2024/04/14 12:36:09;;;;;;;;;;;;;;;19.07;52.52;99903.15;130207;1273;107820;-75
2024/04/14 12:39:13;;;;;;;;;;;;;;;19.08;52.63;99892.58;130171;1259;108870;-75
2024/04/14 12:42:17;;;;;;;;;;;;;;;19.17;52.80;99891.45;130216;1266;107391;-75
2024/04/14 12:45:21;;;;;;;;;;;;;;;19.37;52.81;99887.81;130196;1271;108206;-76
2024/04/14 12:48:24;;;;;;;;;;;;;;;19.51;52.70;99883.27;130127;1266;107081;-74
2024/04/14 12:51:28;;;;;;;;;;;;;;;19.67;53.00;99865.58;130159;1273;107693;-74
2024/04/14 12:54:32;;;;;;;;;;;;;;;19.91;52.83;99864.33;130172;1263;107762;-74
2024/04/14 12:57:36;;;;;;;;;;;;;;;20.03;52.54;99863.59;130141;1263;105662;-75
2024/04/14 13:00:40;;;;;;;;;;;;;;;19.93;52.15;99860.19;130191;1273;108356;-74
2024/04/14 13:03:43;;;;;;;;;;;;;;;19.72;52.41;99856.63;130268;1265;106897;-75
2024/04/14 13:06:47;;;;;;;;;;;;;;;19.61;52.65;99859.60;130270;1264;107849;-73
2024/04/14 13:09:52;;;;;;;;;;;;;;;19.45;52.27;99864.14;130157;1263;107868;-75
2024/04/14 13:12:55;;;;;;;;;;;;;;;19.24;51.99;99872.87;130174;1273;107993;-74
2024/04/14 13:15:59;;;;;;;;;;;;;;;19.06;51.93;99870.34;130166;1273;106343;-73
2024/04/14 13:19:03;;;;;;;;;;;;;;;19.04;51.50;99873.09;130148;1272;107028;-74
2024/04/14 13:22:06;;;;;;;;;;;;;;;19.04;51.31;99876.02;130162;1263;108454;-73
2024/04/14 13:25:11;;;;;;;;;;;;;;;19.09;50.72;99868.45;130145;1264;108741;-72
2024/04/14 13:28:15;;;;;;;;;;;;;;;19.12;51.09;99872.79;130177;1273;107816;-72
2024/04/14 13:31:18;;;;;;;;;;;;;;;19.10;50.29;99873.52;130185;1263;107668;-71
2024/04/14 13:34:22;;;;;;;;;;;;;;;18.99;50.84;99859.41;130169;1263;108036;-73
2024/04/14 13:37:26;;;;;;;;;;;;;;;19.05;50.54;99854.86;130209;1263;108543;-73
2024/04/14 13:40:30;;;;;;;;;;;;;;;19.11;50.18;99848.85;130373;1271;106955;-78
2024/04/14 13:43:33;;;;;;;;;;;;;;;19.22;50.69;99843.90;130309;1263;108590;-74
2024/04/14 13:46:37;;;;;;;;;;;;;;;19.41;50.96;99844.31;130224;1264;107916;-74
2024/04/14 13:49:41;;;;;;;;;;;;;;;19.60;50.30;99847.69;130233;1264;106485;-77
2024/04/14 13:52:45;;;;;;;;;;;;;;;19.70;50.57;99846.11;129981;1264;107527;-74
2024/04/14 13:55:49;;;;;;;;;;;;;;;19.76;50.01;99844.78;130104;1262;106808;-74
2024/04/14 13:58:54;;;;;;;;;;;;;;;19.79;49.90;99847.86;130219;1265;107709;-73
2024/04/14 14:01:58;;;;;;;;;;;;;;;19.77;48.74;99848.11;130129;1274;108759;-70
2024/04/14 14:05:01;;;;;;;;;;;;;;;19.75;47.69;99850.36;130105;1264;106034;-71
2024/04/14 14:08:06;;;;;;;;;;;;;;;19.77;48.28;99841.52;130053;1270;107605;-72
2024/04/14 14:11:09;;;;;;;;;;;;;;;19.73;47.74;99840.40;130334;1263;107834;-71
2024/04/14 14:14:13;;;;;;;;;;;;;;;19.70;47.05;99851.28;130300;1264;109302;-73
2024/04/14 14:17:19;;;;;;;;;;;;;;;19.56;46.96;99849.68;130385;1264;107754;-73
2024/04/14 14:20:23;;;;;;;;;;;;;;;19.43;46.34;99851.09;130184;1264;107765;-74
2024/04/14 14:23:26;;;;;;;;;;;;;;;19.32;45.86;99849.81;130327;1264;106476;-74
2024/04/14 14:26:30;;;;;;;;;;;;;;;19.29;46.43;99855.61;130470;1257;106749;-78
2024/04/14 14:29:34;;;;;;;;;;;;;;;19.31;46.67;99859.70;130299;1263;107787;-73
2024/04/14 14:32:39;;;;;;;;;;;;;;;19.30;45.90;99851.04;130376;1264;106510;-74
2024/04/14 14:39:05;;;;;;;;;;;;;;;19.29;46.16;99867.11;130115;1265;107272;-70
2024/04/14 14:42:09;;;;;;;;;;;;;;;19.10;44.82;99870.11;130096;1264;108677;-75
2024/04/14 14:45:13;;;;;;;;;;;;;;;18.95;45.32;99876.40;130198;1273;107159;-73
2024/04/14 14:48:16;;;;;;;;;;;;;;;18.83;45.26;99875.88;130093;1261;108113;-72
2024/04/14 14:51:20;;;;;;;;;;;;;;;18.71;45.05;99880.86;130190;1264;108326;-72
2024/04/14 14:54:24;;;;;;;;;;;;;;;18.62;45.10;99882.98;130220;1264;107612;-74
2024/04/14 14:57:28;;;;;;;;;;;;;;;18.51;45.29;99886.82;130151;1265;109690;-72
2024/04/14 15:00:33;;;;;;;;;;;;;;;18.45;45.58;99883.52;130197;1264;107748;-72
2024/04/14 15:03:37;;;;;;;;;;;;;;;18.32;45.80;99880.73;130193;1274;107727;-72
2024/04/14 15:06:41;;;;;;;;;;;;;;;18.26;45.90;99889.40;130154;1263;108729;-72
2024/04/14 15:09:55;;;;;;;;;;;;;;;18.31;46.02;99888.40;130168;1274;106620;-73
2024/04/14 15:12:58;;;;;;;;;;;;;;;18.26;45.26;99898.09;130163;1263;108696;-72
2024/04/14 15:16:03;;;;;;;;;;;;;;;18.07;45.36;99903.33;130060;1266;108412;-72
2024/04/14 15:19:07;;;;;;;;;;;;;;;17.93;45.71;99906.59;130086;1264;108519;-73
2024/04/14 15:22:13;;;;;;;;;;;;;;;17.88;45.69;99919.55;130229;1261;106601;-72
2024/04/14 15:25:17;;;;;;;;;;;;;;;17.78;45.72;99917.53;130229;1274;107457;-72
2024/04/14 15:28:21;;;;;;;;;;;;;;;17.68;45.94;99917.91;130042;1273;107075;-73
2024/04/14 15:31:25;;;;;;;;;;;;;;;17.64;45.92;99914.13;130086;1265;107278;-71
2024/04/14 15:34:28;;;;;;;;;;;;;;;17.60;45.98;99915.09;130201;1260;106927;-73